Cienfuegus, Cuba
Current Conditions -  °F | °C
As of 3:51 AM on Monday 22 Dec 2014 (Local Time) from MUSC Reporting Station
Scattered Clouds Scattered Clouds  
Wind Chill: 68°   Ceiling: Unl
Heat Index: 68°   Visibility: 5mi
Dew Point: 64°   Wind: 1mph
Humidity: 88%   Direction: 30°NNE
Pressure: 30.03"   Gusts: NA
Location:  22.15°N, 80.4°W
Report Text: MUSC 220751Z 03001KT 8000 SCT018 20/18 Q1017
Loading
Personal Weather Stations






























Interactive Weather Map New forecast layout! Learn more

10-Day Weather Forecast

Advertisements
Track Severe Weather on mobile